createdAt,value
2024-02-29T00:07:25.716Z,8.50
2024-02-29T00:17:26.688Z,8.46
2024-02-29T00:27:26.965Z,8.38
2024-02-29T00:37:27.589Z,8.22
2024-02-29T00:47:28.181Z,8.33
2024-02-29T00:57:28.721Z,8.29
2024-02-29T01:07:29.310Z,8.16
2024-02-29T01:17:29.883Z,8.14
2024-02-29T01:27:30.629Z,7.90
2024-02-29T01:37:31.077Z,7.90
2024-02-29T01:47:31.713Z,7.99
2024-02-29T01:57:32.278Z,8.08
2024-02-29T02:07:32.631Z,7.95
2024-02-29T02:17:33.680Z,7.83
2024-02-29T02:27:33.809Z,7.69
2024-02-29T02:37:34.305Z,7.69
2024-02-29T02:47:34.914Z,7.58
2024-02-29T02:57:35.546Z,7.48
2024-02-29T03:07:36.047Z,7.37
2024-02-29T03:17:36.655Z,7.26
2024-02-29T03:27:37.135Z,7.06
2024-02-29T03:37:37.774Z,7.06
2024-02-29T03:47:38.245Z,7.08
2024-02-29T03:57:38.822Z,7.11
2024-02-29T04:07:39.392Z,7.05
2024-02-29T04:17:39.998Z,6.88
2024-02-29T04:27:40.845Z,7.02
2024-02-29T04:37:41.113Z,6.90
2024-02-29T04:47:41.716Z,6.88
2024-02-29T04:57:42.284Z,6.59
2024-02-29T05:07:42.805Z,6.78
2024-02-29T05:17:43.400Z,6.59
2024-02-29T05:27:44.044Z,6.61
2024-02-29T05:37:44.505Z,6.45
2024-02-29T05:47:45.040Z,6.58
2024-02-29T05:57:45.662Z,6.72
2024-02-29T06:07:46.156Z,6.95
2024-02-29T06:17:47.041Z,6.97
2024-02-29T06:27:47.359Z,6.90
2024-02-29T06:37:47.949Z,7.39
2024-02-29T06:47:48.627Z,7.39
2024-02-29T06:57:49.461Z,7.58
2024-02-29T07:07:49.984Z,7.53
2024-02-29T07:17:50.733Z,8.03
2024-02-29T07:27:51.589Z,8.08
2024-02-29T07:37:54.709Z,8.30
2024-02-29T07:47:52.594Z,8.42
2024-02-29T07:57:53.332Z,8.71
2024-02-29T08:07:53.956Z,9.10
2024-02-29T08:17:54.801Z,9.23
2024-02-29T08:27:55.716Z,9.80
2024-02-29T08:37:57.986Z,10.20
2024-02-29T08:47:57.183Z,10.84
2024-02-29T08:57:57.946Z,11.23
2024-02-29T09:07:58.926Z,11.94
2024-02-29T09:17:59.898Z,12.34
2024-02-29T09:28:00.830Z,12.61
2024-02-29T09:38:02.017Z,12.47
2024-02-29T09:48:02.936Z,13.99
2024-02-29T09:58:04.082Z,13.55
2024-02-29T10:08:07.028Z,14.86
2024-02-29T10:18:06.446Z,15.15
2024-02-29T10:28:07.956Z,14.77
2024-02-29T10:38:09.097Z,15.30
2024-02-29T10:48:10.351Z,15.42
2024-02-29T10:58:11.544Z,15.30
2024-02-29T11:08:12.708Z,15.44
2024-02-29T11:18:14.075Z,15.35
2024-02-29T11:28:15.353Z,15.30
2024-02-29T11:48:17.863Z,15.48
2024-02-29T11:58:19.329Z,15.64
2024-02-29T12:08:20.453Z,15.61
2024-02-29T12:18:21.828Z,15.83
2024-02-29T12:28:23.285Z,16.07
2024-02-29T12:38:24.519Z,16.18
2024-02-29T12:48:25.922Z,16.44
2024-02-29T12:58:27.564Z,16.45
2024-02-29T13:08:28.596Z,16.44
2024-02-29T13:18:29.948Z,16.51
2024-02-29T13:28:31.253Z,16.38
2024-02-29T13:38:32.841Z,16.35
2024-02-29T13:48:34.060Z,16.28
2024-02-29T13:58:35.206Z,16.18
2024-02-29T14:08:36.751Z,16.03
2024-02-29T14:18:37.967Z,15.91
2024-02-29T14:28:39.182Z,15.91
2024-02-29T14:38:40.665Z,15.87
2024-02-29T14:48:42.200Z,15.82
2024-02-29T14:58:43.186Z,15.77
2024-02-29T15:08:44.442Z,15.65
2024-02-29T15:18:45.846Z,15.55
2024-02-29T15:28:47.321Z,15.42
2024-02-29T15:38:48.485Z,15.30
2024-02-29T15:48:49.566Z,15.15
2024-02-29T15:58:50.855Z,15.05
2024-02-29T16:08:52.104Z,14.99
2024-02-29T16:18:53.310Z,14.90
2024-02-29T16:28:54.396Z,14.78
2024-02-29T16:38:55.596Z,14.62
2024-02-29T16:48:56.790Z,14.47
2024-02-29T16:58:57.972Z,14.28
2024-02-29T17:08:59.171Z,14.13
2024-02-29T17:19:00.650Z,13.98
2024-02-29T17:29:01.981Z,13.85
2024-02-29T17:39:02.677Z,13.71
2024-02-29T17:49:03.854Z,13.56
2024-02-29T17:59:04.980Z,13.47
2024-02-29T18:09:06.033Z,13.35
2024-02-29T18:19:07.110Z,13.31
2024-02-29T18:29:07.987Z,13.34
2024-02-29T18:39:11.277Z,13.15
2024-02-29T18:49:09.928Z,13.11
2024-02-29T18:59:11.221Z,13.09
2024-02-29T19:09:12.158Z,13.06
2024-02-29T19:19:13.365Z,13.08
2024-02-29T19:29:14.051Z,12.96
2024-02-29T19:39:15.137Z,12.92
2024-02-29T19:49:16.146Z,12.73
2024-02-29T19:59:17.070Z,12.63
2024-02-29T20:09:18.166Z,12.56
2024-02-29T20:19:19.165Z,12.56
2024-02-29T20:29:20.187Z,12.72
2024-02-29T20:39:21.393Z,12.74
2024-02-29T20:49:22.175Z,12.60
2024-02-29T20:59:25.339Z,12.36
2024-02-29T21:09:24.047Z,12.26
2024-02-29T21:19:25.272Z,12.41
2024-02-29T21:29:25.942Z,12.42
2024-02-29T21:39:35.872Z,12.27
2024-02-29T21:49:27.997Z,12.40
2024-02-29T21:59:28.756Z,12.13
2024-02-29T22:09:29.741Z,11.94
2024-02-29T22:19:30.744Z,11.75
2024-02-29T22:29:31.815Z,11.63
2024-02-29T22:39:32.753Z,11.46
2024-02-29T22:49:33.653Z,11.20
2024-02-29T22:59:34.507Z,11.06
2024-02-29T23:09:35.059Z,10.90
2024-02-29T23:19:35.873Z,10.83
2024-02-29T23:29:36.653Z,10.79
2024-02-29T23:39:37.471Z,10.67
2024-02-29T23:49:38.648Z,10.63
2024-02-29T23:59:39.248Z,10.69
